Time;durP1;ratioP1;P1;durP2;ratioP2;P2;SDS_P1;SDS_P2;PMS_P1;PMS_P2;Temp;Humidity;BMP_temperature;BMP_pressure;BME280_temperature;BME280_humidity;BME280_pressure;Samples;Min_cycle;Max_cycle;Signal;HPM_P1;HPM_P2
2021/08/12 00:05:36;;;;;;;9.63;5.22;;;;;;;17.15;79.48;99530.26;4173328;83;21043;-81
2021/08/12 00:11:38;;;;;;;12.43;5.70;;;;;;;17.19;79.89;99535.95;4168607;83;22336;-81
2021/08/12 00:17:39;;;;;;;10.60;5.53;;;;;;;17.22;80.11;99539.91;4144439;84;21086;-81
2021/08/12 00:23:41;;;;;;;9.00;5.12;;;;;;;17.13;80.13;99547.88;4060527;84;21055;-81
2021/08/12 00:29:42;;;;;;;10.98;5.50;;;;;;;17.04;80.24;99545.55;4063265;86;21147;-81
2021/08/12 00:35:43;;;;;;;9.55;5.55;;;;;;;17.05;80.58;99562.33;4043483;85;21057;-82
2021/08/12 00:41:45;;;;;;;9.00;4.65;;;;;;;16.89;80.58;99564.81;4026558;86;21103;-82
2021/08/12 00:47:48;;;;;;;10.03;5.30;;;;;;;16.71;80.34;99559.17;4014923;86;21027;-81
2021/08/12 00:53:49;;;;;;;9.80;5.30;;;;;;;16.53;80.47;99562.01;4122699;84;21056;-82
2021/08/12 00:59:52;;;;;;;9.78;5.62;;;;;;;16.41;81.10;99561.02;4126464;84;21006;-81
2021/08/12 01:06:00;;;;;;;9.68;4.95;;;;;;;16.41;81.61;99561.63;4125995;84;21036;-81
2021/08/12 01:12:14;;;;;;;12.35;5.92;;;;;;;16.31;81.43;99563.23;4118830;84;21143;-81
2021/08/12 01:18:31;;;;;;;10.20;5.67;;;;;;;16.14;81.45;99566.83;4132009;84;21625;-82
2021/08/12 01:24:38;;;;;;;10.78;5.42;;;;;;;16.08;81.71;99571.19;4040216;86;21050;-82
2021/08/12 01:30:51;;;;;;;8.65;5.58;;;;;;;15.98;82.20;99568.42;4100491;84;22121;-82
2021/08/12 01:36:54;;;;;;;12.82;5.55;;;;;;;16.00;82.81;99571.59;4090214;84;21214;-82
2021/08/12 01:43:00;;;;;;;10.10;5.90;;;;;;;16.09;82.83;99565.05;4105135;84;21549;-83
2021/08/12 01:49:04;;;;;;;7.92;5.05;;;;;;;15.92;82.85;99569.44;4131457;84;21051;-82
2021/08/12 01:55:09;;;;;;;8.10;5.62;;;;;;;15.79;82.94;99564.69;4145781;84;21511;-81
2021/08/12 02:01:13;;;;;;;11.38;5.58;;;;;;;15.86;83.12;99558.59;4157492;83;21568;-82
2021/08/12 02:07:15;;;;;;;10.82;5.92;;;;;;;15.72;83.03;99568.27;4148626;84;21047;-83
2021/08/12 02:13:17;;;;;;;11.78;5.65;;;;;;;15.68;83.64;99571.61;4159106;84;21027;-81
2021/08/12 02:19:19;;;;;;;10.80;5.75;;;;;;;15.87;84.14;99573.17;4147188;84;21063;-82
2021/08/12 02:25:38;;;;;;;9.10;5.20;;;;;;;15.82;83.57;99572.21;4150618;84;21062;-82
2021/08/12 02:31:44;;;;;;;9.80;4.75;;;;;;;15.60;83.36;99579.69;4141198;84;21531;-82
2021/08/12 02:37:50;;;;;;;8.83;5.33;;;;;;;15.64;84.40;99584.02;4181734;82;21048;-81
2021/08/12 02:43:52;;;;;;;8.30;6.03;;;;;;;15.68;84.47;99565.50;4164659;83;21547;-81
2021/08/12 02:49:56;;;;;;;11.55;4.83;;;;;;;15.58;84.27;99574.56;4180122;83;21522;-82
2021/08/12 02:56:05;;;;;;;9.35;5.45;;;;;;;15.64;84.77;99586.02;4163117;83;21055;-85
2021/08/12 03:02:08;;;;;;;12.18;5.65;;;;;;;15.71;84.74;99586.61;4159753;83;21083;-82
2021/08/12 03:08:13;;;;;;;15.70;5.97;;;;;;;15.53;84.14;99581.84;4171024;83;21050;-81
2021/08/12 03:14:15;;;;;;;10.03;6.15;;;;;;;15.46;84.41;99586.00;4160396;83;21035;-81
2021/08/12 03:20:16;;;;;;;9.28;4.90;;;;;;;15.37;85.02;99586.95;4165317;83;21031;-81
2021/08/12 03:26:18;;;;;;;10.30;6.17;;;;;;;15.55;85.45;99591.14;4168937;83;21581;-81
2021/08/12 03:32:20;;;;;;;10.45;6.10;;;;;;;15.61;85.26;99588.95;4169163;83;21024;-82
2021/08/12 03:38:22;;;;;;;11.30;6.05;;;;;;;15.52;84.92;99591.91;4167617;83;21061;-81
2021/08/12 03:44:24;;;;;;;12.47;6.33;;;;;;;15.28;84.56;99589.89;4174615;83;21027;-81
2021/08/12 03:50:26;;;;;;;13.65;6.15;;;;;;;15.09;84.47;99597.94;4163833;83;21117;-86
2021/08/12 03:56:28;;;;;;;7.92;5.70;;;;;;;14.96;85.41;99604.17;4165734;83;21043;-81
2021/08/12 04:02:30;;;;;;;11.15;5.67;;;;;;;14.98;85.68;99614.23;4169184;83;21047;-82
2021/08/12 04:08:32;;;;;;;8.28;4.95;;;;;;;15.02;86.01;99624.67;4152235;83;21498;-83
2021/08/12 04:14:35;;;;;;;9.83;6.20;;;;;;;15.08;86.02;99619.77;4156346;83;21694;-81
2021/08/12 04:20:36;;;;;;;11.83;6.20;;;;;;;15.15;86.43;99625.31;4167086;83;21027;-82
2021/08/12 04:26:37;;;;;;;11.00;6.53;;;;;;;15.30;86.42;99613.73;4169050;83;21603;-81
2021/08/12 04:32:39;;;;;;;11.78;6.50;;;;;;;15.36;86.46;99622.59;4171792;83;21407;-81
2021/08/12 04:38:40;;;;;;;10.00;6.78;;;;;;;15.48;86.50;99627.79;4169166;83;21724;-81
2021/08/12 04:44:42;;;;;;;11.35;6.60;;;;;;;15.53;86.45;99617.72;4170036;83;21027;-84
2021/08/12 04:50:43;;;;;;;15.90;7.28;;;;;;;15.63;86.47;99634.09;4175214;83;21028;-82
2021/08/12 04:56:44;;;;;;;8.85;6.65;;;;;;;15.68;86.34;99634.32;4170660;83;21682;-81
2021/08/12 05:02:46;;;;;;;13.13;7.10;;;;;;;15.72;86.36;99642.80;4167690;83;21516;-80
2021/08/12 05:08:48;;;;;;;11.48;6.35;;;;;;;15.76;86.31;99652.44;4168942;83;21044;-81
2021/08/12 05:14:49;;;;;;;11.10;6.22;;;;;;;15.81;86.47;99648.71;4167421;83;21064;-81
2021/08/12 05:20:51;;;;;;;8.73;6.30;;;;;;;15.85;86.48;99661.91;4163171;83;21042;-82
2021/08/12 05:26:53;;;;;;;13.88;7.60;;;;;;;15.92;86.55;99664.69;4172888;83;21039;-81
2021/08/12 05:32:54;;;;;;;10.70;7.08;;;;;;;16.03;86.53;99661.34;4164312;83;21532;-81
2021/08/12 05:38:57;;;;;;;17.80;7.97;;;;;;;16.12;86.49;99660.92;4166349;83;21004;-81
2021/08/12 05:44:59;;;;;;;13.28;7.58;;;;;;;16.20;86.60;99663.30;4164658;83;21030;-81
2021/08/12 05:51:00;;;;;;;13.28;7.97;;;;;;;16.34;86.62;99663.28;4171237;83;21016;-80
2021/08/12 05:57:01;;;;;;;15.60;8.43;;;;;;;16.44;86.27;99660.30;4176015;83;21030;-81
2021/08/12 06:03:11;;;;;;;16.87;8.58;;;;;;;16.57;86.20;99660.88;4169945;83;21619;-81
2021/08/12 06:09:13;;;;;;;13.88;8.78;;;;;;;16.78;86.16;99663.61;4167391;83;21733;-81
2021/08/12 06:15:15;;;;;;;15.85;7.72;;;;;;;16.99;86.10;99664.13;4148531;83;21020;-81
2021/08/12 06:21:18;;;;;;;13.88;8.73;;;;;;;17.24;85.81;99667.56;4172789;83;21542;-81
2021/08/12 06:27:19;;;;;;;14.28;8.23;;;;;;;17.44;85.33;99681.13;4165496;83;21103;-81
2021/08/12 06:33:21;;;;;;;17.07;9.13;;;;;;;17.63;85.22;99679.23;4180795;83;21020;-81
2021/08/12 06:39:23;;;;;;;17.27;7.25;;;;;;;17.80;85.08;99671.40;4150815;84;21106;-82
2021/08/12 06:45:25;;;;;;;15.08;9.03;;;;;;;18.01;84.71;99674.61;4129724;84;21805;-81
2021/08/12 06:51:26;;;;;;;13.03;7.40;;;;;;;18.09;83.96;99669.97;4093575;84;21105;-82
2021/08/12 06:57:28;;;;;;;13.13;7.05;;;;;;;18.26;83.81;99677.34;4109865;85;21019;-83
2021/08/12 07:03:31;;;;;;;11.43;7.28;;;;;;;18.47;83.64;99680.55;4075808;85;21066;-82
2021/08/12 07:09:34;;;;;;;12.37;7.35;;;;;;;18.68;83.24;99677.56;4086105;85;21067;-83
2021/08/12 07:15:36;;;;;;;12.75;6.22;;;;;;;18.84;82.75;99677.00;4121159;84;21033;-82
2021/08/12 07:21:41;;;;;;;10.93;6.15;;;;;;;18.93;82.10;99685.01;4098342;83;21039;-82
2021/08/12 07:27:43;;;;;;;13.78;6.85;;;;;;;19.09;81.42;99686.58;4096881;84;21060;-81
2021/08/12 07:33:45;;;;;;;10.63;5.80;;;;;;;19.32;81.07;99692.28;4092459;84;21557;-82
2021/08/12 07:39:48;;;;;;;7.85;5.08;;;;;;;19.55;80.79;99689.58;4097932;84;21091;-85
2021/08/12 07:45:49;;;;;;;13.03;5.62;;;;;;;19.84;80.11;99699.06;4085452;84;21581;-82
2021/08/12 07:51:51;;;;;;;8.48;4.87;;;;;;;20.17;79.49;99696.02;4076631;84;21037;-82
2021/08/12 07:57:54;;;;;;;9.35;4.70;;;;;;;20.60;78.56;99693.27;4077942;84;21047;-82
2021/08/12 08:03:56;;;;;;;6.78;3.47;;;;;;;21.20;77.85;99690.13;4105156;84;21050;-86
2021/08/12 08:09:57;;;;;;;5.17;2.52;;;;;;;21.68;76.01;99691.06;4120458;84;21575;-82
2021/08/12 08:15:59;;;;;;;11.48;4.22;;;;;;;21.96;74.02;99703.57;4083213;84;21065;-84
2021/08/12 08:22:00;;;;;;;8.28;4.70;;;;;;;22.16;72.73;99708.45;4088825;84;21623;-84
2021/08/12 08:28:03;;;;;;;7.15;3.50;;;;;;;22.22;71.28;99717.10;4133259;84;21533;-87
2021/08/12 08:34:05;;;;;;;5.47;3.42;;;;;;;22.33;70.47;99721.17;4098707;84;21125;-83
2021/08/12 08:40:07;;;;;;;4.87;3.00;;;;;;;22.41;69.16;99721.80;4084646;84;21535;-82
2021/08/12 08:46:11;;;;;;;4.90;2.98;;;;;;;22.40;68.03;99718.22;4107907;84;21136;-83
2021/08/12 08:52:13;;;;;;;4.78;2.90;;;;;;;22.53;67.01;99718.33;4102159;84;21439;-82
2021/08/12 08:58:19;;;;;;;3.60;2.40;;;;;;;22.71;66.60;99711.06;4072429;84;21624;-84
2021/08/12 09:04:21;;;;;;;11.63;3.58;;;;;;;22.89;65.81;99712.77;4170108;83;22138;-84
2021/08/12 09:10:22;;;;;;;6.10;3.20;;;;;;;23.00;64.05;99710.48;4161211;83;21599;-83
2021/08/12 09:16:30;;;;;;;6.12;3.50;;;;;;;23.08;63.04;99712.45;4165075;83;21058;-85
2021/08/12 09:23:02;;;;;;;8.58;3.40;;;;;;;23.48;63.41;99716.48;4049856;86;22210;-83
2021/08/12 09:29:04;;;;;;;5.70;4.17;;;;;;;23.84;62.39;99719.77;4028982;86;21089;-84
2021/08/12 09:35:06;;;;;;;3.85;3.25;;;;;;;24.20;61.39;99724.44;4046991;86;21062;-83
2021/08/12 09:41:07;;;;;;;4.37;3.10;;;;;;;24.52;60.31;99726.95;4132234;84;21491;-83
2021/08/12 09:47:17;;;;;;;6.47;3.87;;;;;;;24.31;60.21;99729.07;4159241;84;21553;-83
2021/08/12 09:53:20;;;;;;;7.90;3.27;;;;;;;24.71;60.17;99730.76;4172682;84;21140;-83
2021/08/12 09:59:21;;;;;;;4.60;3.10;;;;;;;25.29;58.79;99725.47;4155169;84;21123;-83
2021/08/12 10:05:23;;;;;;;5.47;3.25;;;;;;;26.07;58.13;99724.88;4158429;84;22167;-84
2021/08/12 10:11:31;;;;;;;4.08;2.70;;;;;;;26.29;57.21;99723.99;4156047;84;21641;-83
2021/08/12 10:17:32;;;;;;;3.90;3.35;;;;;;;27.05;56.05;99723.33;4156109;84;21085;-83
2021/08/12 10:23:36;;;;;;;4.58;3.17;;;;;;;27.14;55.31;99715.68;4065478;86;21220;-83
2021/08/12 10:29:37;;;;;;;5.05;3.05;;;;;;;27.76;53.99;99716.06;4070218;86;21843;-83
2021/08/12 10:35:39;;;;;;;5.90;3.30;;;;;;;27.96;52.68;99715.53;4055492;86;21063;-85
2021/08/12 10:41:41;;;;;;;7.03;3.67;;;;;;;27.63;51.40;99718.28;4161614;83;21498;-83
2021/08/12 10:47:51;;;;;;;5.92;3.67;;;;;;;26.17;51.49;99721.45;4162789;83;21050;-84
2021/08/12 10:54:17;;;;;;;7.28;3.95;;;;;;;25.59;51.66;99725.53;4166661;83;21063;-83
2021/08/12 11:00:49;;;;;;;4.28;2.90;;;;;;;25.95;50.53;99716.53;4164918;82;21416;-84
2021/08/12 11:06:54;;;;;;;6.22;3.15;;;;;;;26.27;50.33;99720.25;4163193;83;21040;-84
2021/08/12 11:13:02;;;;;;;5.40;3.00;;;;;;;26.59;49.51;99712.69;4156153;83;21016;-84
2021/08/12 11:19:04;;;;;;;6.47;3.17;;;;;;;25.77;49.58;99722.05;4158783;83;21019;-83
2021/08/12 11:25:08;;;;;;;10.98;3.40;;;;;;;24.92;50.42;99720.84;4114011;84;21059;-84
2021/08/12 11:31:23;;;;;;;6.10;3.47;;;;;;;24.80;50.95;99718.23;4127997;84;21130;-83
2021/08/12 11:37:29;;;;;;;11.78;3.22;;;;;;;25.34;50.77;99715.11;4118307;83;21681;-84
2021/08/12 11:43:31;;;;;;;4.05;2.77;;;;;;;25.75;50.03;99718.91;4145333;83;21070;-83
2021/08/12 11:49:32;;;;;;;3.60;2.92;;;;;;;25.96;49.88;99706.86;4149808;83;21500;-84
2021/08/12 11:55:36;;;;;;;3.33;2.70;;;;;;;26.07;49.32;99710.06;4172448;83;21070;-84
2021/08/12 12:01:38;;;;;;;3.27;2.80;;;;;;;26.38;49.60;99703.75;4145105;84;21003;-83
2021/08/12 12:07:49;;;;;;;3.95;2.90;;;;;;;26.37;48.84;99701.41;4154261;84;21088;-83
2021/08/12 12:13:50;;;;;;;3.50;3.00;;;;;;;26.10;48.16;99702.91;4025580;85;22219;-83
2021/08/12 12:20:12;;;;;;;3.00;2.70;;;;;;;25.60;48.81;99699.08;4044670;85;21129;-84
2021/08/12 12:26:21;;;;;;;3.20;2.80;;;;;;;25.40;48.06;99690.22;4064948;85;22159;-83
2021/08/12 12:32:22;;;;;;;3.85;3.00;;;;;;;25.32;47.16;99681.91;4043445;85;21168;-84
2021/08/12 12:38:25;;;;;;;2.92;2.62;;;;;;;25.26;47.24;99681.55;4166190;83;21059;-84
2021/08/12 12:44:26;;;;;;;4.03;3.10;;;;;;;24.99;45.53;99677.16;4171673;83;21039;-85
2021/08/12 12:50:28;;;;;;;4.65;3.17;;;;;;;24.88;47.80;99675.36;4167532;83;21021;-84
2021/08/12 12:56:33;;;;;;;4.87;3.22;;;;;;;24.78;47.73;99673.10;4182879;83;21094;-84
2021/08/12 13:02:34;;;;;;;3.20;2.87;;;;;;;24.70;46.55;99669.62;4173203;83;21099;-83
2021/08/12 13:08:43;;;;;;;3.95;3.00;;;;;;;24.47;46.92;99654.78;4161355;83;21055;-84
2021/08/12 13:14:44;;;;;;;5.08;3.20;;;;;;;24.54;46.96;99664.95;4175948;83;21082;-84
2021/08/12 13:20:48;;;;;;;7.42;3.52;;;;;;;24.38;46.52;99639.28;4166424;83;21045;-84
2021/08/12 13:26:59;;;;;;;4.08;3.15;;;;;;;24.34;46.59;99665.22;4168563;83;21003;-83
2021/08/12 13:33:03;;;;;;;6.10;3.45;;;;;;;24.05;46.73;99658.23;4153820;83;21005;-83
2021/08/12 13:39:06;;;;;;;4.00;3.22;;;;;;;24.00;46.89;99656.78;4160986;83;21718;-83
2021/08/12 13:45:08;;;;;;;5.00;3.62;;;;;;;24.01;47.12;99659.73;4166672;83;21035;-84
2021/08/12 13:51:09;;;;;;;4.08;3.50;;;;;;;24.09;47.14;99658.87;4169038;83;20982;-85
2021/08/12 13:57:12;;;;;;;3.83;3.40;;;;;;;24.14;47.34;99654.91;4164337;83;21336;-84
2021/08/12 14:03:20;;;;;;;5.67;3.72;;;;;;;24.05;47.04;99653.42;4175299;83;21063;-84
2021/08/12 14:09:18;;;;;;;4.90;3.65;;;;;;;23.79;47.24;99653.87;4166115;83;21027;-83
2021/08/12 14:15:19;;;;;;;4.55;3.25;;;;;;;23.63;47.81;99657.56;4169061;83;21084;-84
2021/08/12 14:21:21;;;;;;;4.70;3.60;;;;;;;23.61;48.19;99653.02;4163134;83;21106;-83
2021/08/12 14:27:22;;;;;;;7.37;3.50;;;;;;;23.68;49.03;99648.59;4163134;83;21500;-86
2021/08/12 14:33:24;;;;;;;7.00;4.17;;;;;;;23.74;48.88;99646.80;4169998;83;20995;-83
2021/08/12 14:39:26;;;;;;;4.92;3.50;;;;;;;23.60;49.20;99654.87;4172846;83;21008;-84
2021/08/12 14:45:27;;;;;;;4.47;3.70;;;;;;;23.44;49.50;99654.95;4147412;83;21063;-83
2021/08/12 14:51:28;;;;;;;4.60;3.47;;;;;;;23.29;50.06;99658.02;4153022;83;21099;-83
2021/08/12 14:57:30;;;;;;;6.60;3.62;;;;;;;23.24;50.37;99656.50;4070305;84;21304;-83
2021/08/12 15:03:31;;;;;;;6.65;3.40;;;;;;;23.30;50.47;99652.59;4164653;83;21127;-83
2021/08/12 15:09:32;;;;;;;4.80;3.40;;;;;;;23.35;49.89;99652.05;4118305;84;21089;-83
2021/08/12 15:15:34;;;;;;;5.65;3.60;;;;;;;23.32;49.67;99651.55;4144383;84;21486;-84
2021/08/12 15:21:37;;;;;;;4.62;3.27;;;;;;;23.32;50.31;99641.77;4106688;84;21050;-83
2021/08/12 15:27:39;;;;;;;4.62;3.52;;;;;;;23.20;50.88;99640.48;4091959;85;21063;-83
2021/08/12 15:33:40;;;;;;;6.97;4.05;;;;;;;23.15;51.00;99639.02;4133501;84;21485;-83
2021/08/12 15:39:42;;;;;;;6.95;3.55;;;;;;;23.15;51.40;99635.44;4107955;84;22015;-83
2021/08/12 15:45:44;;;;;;;4.30;3.60;;;;;;;23.19;50.83;99638.29;4108563;84;21058;-83
2021/08/12 15:51:45;;;;;;;8.55;3.60;;;;;;;23.22;51.05;99633.20;4117034;83;21023;-82
2021/08/12 15:57:47;;;;;;;5.30;3.37;;;;;;;23.08;51.11;99639.84;4106806;84;21083;-83
2021/08/12 16:03:49;;;;;;;5.42;3.67;;;;;;;23.03;51.44;99630.62;4120794;84;21014;-84
2021/08/12 16:09:50;;;;;;;7.00;3.72;;;;;;;22.95;51.56;99634.84;4118909;84;21135;-82
2021/08/12 16:15:53;;;;;;;4.55;3.30;;;;;;;22.83;52.01;99632.80;4085442;84;21110;-83
2021/08/12 16:21:54;;;;;;;5.78;4.00;;;;;;;22.80;52.41;99637.23;4089331;85;21054;-83
2021/08/12 16:27:55;;;;;;;4.12;3.02;;;;;;;22.74;52.93;99630.64;4044892;86;21023;-83
2021/08/12 16:33:56;;;;;;;4.85;3.55;;;;;;;22.68;53.07;99637.98;4110303;84;21370;-83
2021/08/12 16:39:58;;;;;;;5.80;3.30;;;;;;;22.57;53.70;99644.47;4125732;84;21027;-82
2021/08/12 16:45:59;;;;;;;4.40;3.20;;;;;;;22.41;53.50;99645.09;4177105;83;39993;-83
2021/08/12 16:52:01;;;;;;;5.75;3.17;;;;;;;22.31;53.07;99645.55;4176554;83;21536;-82
2021/08/12 16:58:03;;;;;;;5.22;3.10;;;;;;;22.19;52.98;99638.50;4062681;83;10000194;-83
2021/08/12 17:04:04;;;;;;;6.45;3.27;;;;;;;22.09;52.82;99632.57;4180613;83;21504;-83
2021/08/12 17:10:07;;;;;;;6.12;3.60;;;;;;;22.03;52.82;99634.32;4181654;83;21895;-86
2021/08/12 17:16:08;;;;;;;4.85;3.35;;;;;;;21.94;52.65;99635.55;4170404;83;20988;-83
2021/08/12 17:22:12;;;;;;;7.33;3.72;;;;;;;21.81;52.50;99642.43;4172083;83;21816;-84
2021/08/12 17:28:13;;;;;;;3.90;3.50;;;;;;;21.64;52.72;99638.03;4176007;83;21078;-83
2021/08/12 17:34:14;;;;;;;5.55;3.37;;;;;;;21.43;53.09;99642.08;4171005;83;21072;-83
2021/08/12 17:40:16;;;;;;;9.68;4.45;;;;;;;21.27;54.03;99638.45;4167223;83;21032;-83
2021/08/12 17:46:17;;;;;;;5.83;3.80;;;;;;;21.07;54.69;99636.31;4178592;83;21027;-84
2021/08/12 17:52:19;;;;;;;6.22;4.47;;;;;;;20.83;56.22;99641.77;4171609;83;20992;-84
2021/08/12 17:58:20;;;;;;;12.95;6.08;;;;;;;20.54;57.12;99649.08;4181627;83;21075;-84
2021/08/12 18:04:21;;;;;;;11.83;5.85;;;;;;;20.26;57.86;99649.00;4169540;83;20983;-85
2021/08/12 18:10:23;;;;;;;9.78;5.92;;;;;;;20.10;58.38;99642.69;4173099;83;21015;-83
2021/08/12 18:16:26;;;;;;;15.05;6.35;;;;;;;19.92;59.67;99656.07;4172717;83;21018;-83
2021/08/12 18:22:28;;;;;;;12.80;5.85;;;;;;;19.57;60.92;99661.39;4174337;83;21071;-83
2021/08/12 18:28:29;;;;;;;13.48;6.25;;;;;;;19.12;62.78;99646.12;4045875;83;10000232;-83
2021/08/12 18:34:31;;;;;;;16.23;7.75;;;;;;;19.12;62.78;99646.12;4173415;83;21016;-83
2021/08/12 18:40:33;;;;;;;12.47;6.30;;;;;;;19.00;63.42;99680.75;4173847;83;21919;-82
2021/08/12 18:46:34;;;;;;;13.98;7.22;;;;;;;18.83;64.39;99677.58;4176658;83;21210;-83
2021/08/12 18:52:36;;;;;;;12.58;7.60;;;;;;;18.65;64.97;99677.01;4167202;83;21004;-85
2021/08/12 18:58:37;;;;;;;13.40;7.50;;;;;;;18.46;65.33;99672.81;4170937;83;21015;-83
2021/08/12 19:04:38;;;;;;;11.70;7.62;;;;;;;18.30;66.36;99677.31;4171322;83;21012;-82
2021/08/12 19:10:40;;;;;;;16.97;7.50;;;;;;;18.13;67.37;99681.03;4175927;83;21107;-84
2021/08/12 19:16:42;;;;;;;11.65;7.25;;;;;;;17.99;67.76;99690.84;4175526;83;21093;-82
2021/08/12 19:22:47;;;;;;;11.18;7.65;;;;;;;17.85;68.79;99702.02;4174781;83;21023;-83
2021/08/12 19:28:47;;;;;;;12.05;7.90;;;;;;;17.68;69.34;99707.85;4160708;83;21055;-82
2021/08/12 19:34:48;;;;;;;18.75;8.90;;;;;;;17.51;69.53;99710.13;4172229;83;21626;-84
2021/08/12 19:40:49;;;;;;;15.55;10.35;;;;;;;17.34;69.79;99711.59;4166493;83;20996;-83
2021/08/12 19:46:50;;;;;;;16.00;9.45;;;;;;;17.24;70.22;99725.67;4170642;83;21472;-82
2021/08/12 19:52:52;;;;;;;12.80;8.90;;;;;;;17.13;70.85;99723.54;4173204;83;21032;-82
2021/08/12 19:58:53;;;;;;;11.00;9.03;;;;;;;17.10;71.70;99720.19;4165013;83;20976;-82
2021/08/12 20:04:55;;;;;;;14.07;9.38;;;;;;;16.99;72.06;99721.59;4171343;83;21528;-82
2021/08/12 20:10:56;;;;;;;11.97;10.03;;;;;;;16.83;72.58;99726.80;4168436;83;21024;-83
2021/08/12 20:16:59;;;;;;;19.48;10.82;;;;;;;16.66;72.83;99730.36;4167885;83;21542;-83
2021/08/12 20:23:01;;;;;;;16.27;11.33;;;;;;;16.50;73.08;99733.36;4164410;83;21024;-83
2021/08/12 20:29:02;;;;;;;20.35;10.50;;;;;;;16.37;73.61;99724.65;4174184;83;21011;-83
2021/08/12 20:35:05;;;;;;;21.27;11.60;;;;;;;16.26;74.22;99726.63;4168464;83;21039;-83
2021/08/12 20:41:08;;;;;;;31.52;13.43;;;;;;;16.22;74.51;99730.58;4183695;83;21570;-82
2021/08/12 20:47:10;;;;;;;22.05;14.07;;;;;;;16.09;74.76;99728.00;4181104;83;21061;-83
2021/08/12 20:53:12;;;;;;;19.52;12.53;;;;;;;15.93;75.06;99735.28;4180726;83;20996;-81
2021/08/12 20:59:15;;;;;;;24.25;15.00;;;;;;;15.86;75.82;99741.39;4181559;83;21531;-82
2021/08/12 21:05:16;;;;;;;27.70;14.98;;;;;;;15.76;75.88;99731.91;4181736;83;21419;-82
2021/08/12 21:11:18;;;;;;;22.82;15.05;;;;;;;15.63;76.21;99731.48;4177051;83;21110;-83
2021/08/12 21:17:20;;;;;;;19.77;13.72;;;;;;;15.55;76.63;99730.49;4167786;83;21142;-82
2021/08/12 21:23:21;;;;;;;32.17;14.65;;;;;;;15.46;76.92;99725.91;4171497;83;21062;-81
2021/08/12 21:29:23;;;;;;;24.47;14.25;;;;;;;15.40;77.53;99723.33;4197981;83;21012;-82
2021/08/12 21:35:24;;;;;;;26.75;14.45;;;;;;;15.36;77.60;99725.27;4162290;83;21498;-81
2021/08/12 21:41:25;;;;;;;19.67;13.50;;;;;;;15.26;77.98;99725.43;4173979;83;21552;-82
2021/08/12 21:47:27;;;;;;;17.90;12.90;;;;;;;15.19;78.17;99722.63;4169797;83;21002;-82
2021/08/12 21:53:28;;;;;;;17.37;11.83;;;;;;;15.32;78.91;99727.21;4190133;83;21860;-82
2021/08/12 21:59:30;;;;;;;17.17;12.63;;;;;;;15.26;78.77;99726.81;4182733;83;21427;-81
2021/08/12 22:05:31;;;;;;;23.52;13.45;;;;;;;15.13;78.82;99733.84;4191204;83;21569;-81
2021/08/12 22:11:32;;;;;;;21.48;12.88;;;;;;;15.00;79.25;99739.48;4171904;83;21078;-82
2021/08/12 22:17:33;;;;;;;21.68;12.63;;;;;;;15.02;79.80;99744.02;4176404;83;21082;-82
2021/08/12 22:23:35;;;;;;;22.65;12.85;;;;;;;15.05;79.79;99747.39;4181018;83;21037;-82
2021/08/12 22:29:36;;;;;;;19.42;13.15;;;;;;;14.89;79.84;99740.62;4167712;83;21040;-82
2021/08/12 22:35:38;;;;;;;22.80;14.10;;;;;;;14.76;80.16;99750.37;4183334;83;21062;-81
2021/08/12 22:41:40;;;;;;;22.87;12.70;;;;;;;14.68;80.29;99750.92;4181409;83;21040;-85
2021/08/12 22:47:41;;;;;;;20.55;12.73;;;;;;;14.61;80.72;99748.70;4175076;83;21017;-81
2021/08/12 22:53:44;;;;;;;20.85;13.32;;;;;;;14.54;80.86;99745.89;4174620;83;21570;-84
2021/08/12 22:59:46;;;;;;;17.27;12.33;;;;;;;14.47;81.24;99743.88;4182965;83;21013;-82
2021/08/12 23:05:47;;;;;;;19.50;12.35;;;;;;;14.49;81.93;99757.26;4177394;82;21081;-81
2021/08/12 23:11:48;;;;;;;15.13;12.25;;;;;;;14.42;81.69;99754.47;4182794;83;21911;-81
2021/08/12 23:17:54;;;;;;;17.32;13.13;;;;;;;14.32;81.89;99757.92;4176434;83;21024;-82
2021/08/12 23:23:55;;;;;;;21.50;13.22;;;;;;;14.28;82.20;99751.03;4181014;83;21582;-81
2021/08/12 23:29:57;;;;;;;19.80;12.25;;;;;;;14.23;82.55;99753.30;4178013;83;21034;-81
2021/08/12 23:35:58;;;;;;;22.50;13.13;;;;;;;14.19;82.90;99751.88;4170726;83;21040;-81
2021/08/12 23:42:00;;;;;;;24.25;13.72;;;;;;;14.12;82.92;99759.52;4181800;83;21024;-81
2021/08/12 23:48:01;;;;;;;18.52;13.95;;;;;;;14.08;82.97;99750.42;4174877;83;21051;-81
2021/08/12 23:54:03;;;;;;;20.68;13.05;;;;;;;14.05;83.18;99749.00;4172853;83;21066;-81
